Home > Products > Valid Products > TAF

000
FTUS43 KLOT 230500
TAFGYY
TAF
KGYY 230534Z 2306/2406 35016G27KT P6SM VCTS SCT015 BKN025 BKN040CB
     FM230700 01016G23KT P6SM FEW015 SCT025 BKN040
     FM231400 03017G27KT P6SM FEW250
     FM240000 03010G16KT P6SM FEW250=



000
FTUS43 KLOT 230500
TAFDPA
TAF
KDPA 230534Z 2306/2406 02013G19KT P6SM FEW015 SCT025 BKN040
     FM231400 03015G23KT P6SM FEW250
     FM240000 03010G16KT P6SM FEW250=



000
FTUS43 KLOT 230500
TAFGYY
TAF
KGYY 230534Z 2306/2406 35016G27KT P6SM VCTS SCT015 BKN025 BKN040CB
     FM230700 01016G23KT P6SM FEW015 SCT025 BKN040
     FM231400 03017G27KT P6SM FEW250
     FM240000 03010G16KT P6SM FEW250=



000
FTUS43 KLOT 230500
TAFMDW
TAF
KMDW 230534Z 2306/2406 03015G24KT P6SM FEW015 SCT025 BKN040
     FM231400 03016G25KT P6SM FEW250
     FM240000 03010G16KT P6SM FEW250=



000
FTUS43 KLOT 230500
TAFRFD
TAF
KRFD 230534Z 2306/2406 36010G16KT P6SM SCT030
     FM231400 02012G18KT P6SM SCT040
     FM240000 10005KT P6SM SCT050 BKN200=



000
FTUS43 KLOT 230500
TAFORD
TAF
KORD 230534Z 2306/2412 03015G24KT P6SM FEW015 SCT025 BKN040
     FM231400 03016G25KT P6SM FEW250
     FM240000 03010G16KT P6SM FEW250
     FM240700 02006KT P6SM FEW250=



000
FTUS43 KLOT 230400 AAC
TAFGYY
TAF AMD
KGYY 230454Z 2305/2324 23010KT P6SM VCTS BKN040CB
     FM230530 32011KT 6SM -TSRA BKN040CB
     FM230600 01016G27KT P6SM SCT015 BKN025
     FM230800 01016G23KT P6SM SCT015
     FM231400 03017G27KT P6SM FEW250=



000
FTUS43 KLOT 230400 AAC
TAFGYY
TAF AMD
KGYY 230454Z 2305/2324 23010KT P6SM VCTS BKN040CB
     FM230530 32011KT 6SM -TSRA BKN040CB
     FM230600 01016G27KT P6SM SCT015 BKN025
     FM230800 01016G23KT P6SM SCT015
     FM231400 03017G27KT P6SM FEW250=



000
FTUS43 KLOT 230400 AAD
TAFMDW
TAF AMD
KMDW 230423Z 2304/2324 25009KT P6SM VCTS SCT030 BKN040CB
     FM230440 32011KT 5SM -TSRA SCT025 BKN040CB
     FM230530 02015G24KT P6SM SCT015
     FM230800 03014G20KT P6SM SCT015
     FM231400 03016G25KT P6SM FEW250=



000
FTUS43 KLOT 230300 AAC
TAFMDW
TAF AMD
KMDW 230353Z 2304/2324 25009KT P6SM SCT030 BKN040
     FM230425 32011KT 5SM SHRA VCTS BKN040CB
     FM230530 02015G24KT P6SM SCT015
     FM230800 03014G20KT P6SM SCT015
     FM231400 03016G25KT P6SM FEW250=



000
FTUS43 KLOT 230300 AAC
TAFMDW
TAF AMD
KMDW 230353Z 2304/2324 25009KT P6SM SCT030 BKN040
     FM230425 32011KT 5SM SHRA VCTS BKN040CB
     FM230530 02015G24KT P6SM SCT015
     FM230800 03014G20KT P6SM SCT015
     FM231400 03016G25KT P6SM FEW250=



000
FTUS43 KLOT 230300 AAB
TAFDPA
TAF AMD
KDPA 230300Z 2303/2324 26010KT 6SM HZ VCTS BKN040CB
     FM230340 33012G22KT 4SM TSRA SCT025 BKN035CB
     FM230420 34011KT P6SM SCT040
     FM230530 03013G19KT P6SM SCT015
     FM231400 03015G23KT P6SM FEW250=



000
FTUS43 KLOT 230300 AAB
TAFGYY
TAF AMD
KGYY 230300Z 2303/2324 23010KT P6SM BKN040
     FM230500 32011KT 6SM -SHRA VCTS BKN040CB
     FM230545 01016G27KT P6SM SCT015 BKN025
     FM230800 01016G23KT P6SM SCT015
     FM231400 03017G27KT P6SM FEW250=



000
FTUS43 KLOT 230300 AAB
TAFMDW
TAF AMD
KMDW 230300Z 2303/2324 24009KT P6SM SCT030 BKN040
     FM230430 32011KT 6SM -SHRA VCTS BKN040CB
     FM230545 02015G24KT P6SM SCT015
     FM230800 03014G20KT P6SM SCT015
     FM231400 03016G25KT P6SM FEW250=



000
FTUS43 KLOT 230300 AAB
TAFORD
TAF AMD
KORD 230300Z 2303/2406 25008KT 6SM HZ SCT025 BKN035
     FM230350 33012G22KT 4SM TSRA SCT025 BKN035CB
     FM230430 34011KT P6SM SCT040
     FM230530 02015G24KT P6SM SCT015
     FM231400 03016G25KT P6SM FEW250
     FM240000 03010G16KT P6SM FEW250=



000
FTUS43 KLOT 230300 AAB
TAFRFD
TAF AMD
KRFD 230300Z 2303/2324 34010KT P6SM SCT030
     FM230500 36010G16KT P6SM SCT030
     FM231400 02012G18KT P6SM SCT040=



000
FTUS43 KLOT 230300 AAB
TAFGYY
TAF AMD
KGYY 230300Z 2303/2324 23010KT P6SM BKN040
     FM230500 32011KT 6SM -SHRA VCTS BKN040CB
     FM230545 01016G27KT P6SM SCT015 BKN025
     FM230800 01016G23KT P6SM SCT015
     FM231400 03017G27KT P6SM FEW250=



000
FTUS43 KLOT 230100 AAA
TAFRFD
TAF AMD
KRFD 230105Z 2301/2324 24009KT P6SM SCT027 BKN040
     FM230250 34010KT P6SM SCT030
     FM230500 01010G16KT P6SM SCT030
     FM231400 02012G18KT P6SM SCT040=



000
FTUS43 KLOT 230100 AAA
TAFGYY
TAF AMD
KGYY 230105Z 2301/2324 23010KT P6SM BKN040
     FM230430 25010KT P6SM VCTS BKN040CB
     FM230630 33010KT P6SM SCT015 BKN025
     FM230900 01016G23KT P6SM SCT015
     FM231400 03017G27KT P6SM FEW250=



000
FTUS43 KLOT 230100 AAA
TAFGYY
TAF AMD
KGYY 230105Z 2301/2324 23010KT P6SM BKN040
     FM230430 25010KT P6SM VCTS BKN040CB
     FM230630 33010KT P6SM SCT015 BKN025
     FM230900 01016G23KT P6SM SCT015
     FM231400 03017G27KT P6SM FEW250=



000
FTUS43 KLOT 230100 AAA
TAFORD
TAF AMD
KORD 230105Z 2301/2406 25008KT 6SM HZ BKN040
     FM230330 26010KT 6SM HZ VCTS BKN040CB
     FM230530 33010KT P6SM SCT015 BKN040
     FM230700 03014G20KT P6SM SCT015
     FM231400 03016G25KT P6SM FEW250
     FM240000 03010G16KT P6SM FEW250=



000
FTUS43 KLOT 230100 AAA
TAFDPA
TAF AMD
KDPA 230105Z 2301/2324 25008KT 6SM HZ BKN040
     FM230300 26010KT 6SM HZ VCTS BKN040CB
     FM230330 33010KT P6SM SCT015 BKN040
     FM230530 03013G19KT P6SM SCT015
     FM231400 03015G23KT P6SM FEW250=



000
FTUS43 KLOT 230100 AAA
TAFMDW
TAF AMD
KMDW 230105Z 2301/2324 24009KT P6SM BKN040
     FM230400 26010KT P6SM VCTS BKN040CB
     FM230600 33010KT P6SM SCT015 BKN040
     FM230800 03014G20KT P6SM SCT015
     FM231400 03016G25KT P6SM FEW250=



000
FTUS43 KLOT 222300
TAFGYY
TAF
KGYY 222323Z 2300/2324 20010G17KT P6SM BKN040
     FM230300 25010KT P6SM VCTS BKN040CB
     FM230500 33010KT P6SM SCT015 BKN025
     FM230600 36014G22KT P6SM SCT015 BKN025
     FM230900 01016G23KT P6SM SCT015
     FM231400 03017G27KT P6SM FEW250=



000
FTUS43 KLOT 222300
TAFMDW
TAF
KMDW 222323Z 2300/2324 24010G16KT P6SM BKN040
     FM230230 26010KT P6SM VCTS BKN040CB
     FM230430 33010KT P6SM SCT015 BKN040
     FM230600 03014G20KT P6SM SCT015
     FM231400 03016G25KT P6SM FEW250=



000
FTUS43 KLOT 222300
TAFDPA
TAF
KDPA 222323Z 2300/2324 24010G16KT 6SM HZ BKN040
     FM230200 26010KT 6SM HZ VCTS BKN040CB
     FM230400 33010KT P6SM SCT015 BKN040
     FM230500 03013G19KT P6SM SCT015
     FM231400 03015G23KT P6SM FEW250=



000
FTUS43 KLOT 222300
TAFGYY
TAF
KGYY 222323Z 2300/2324 20010G17KT P6SM BKN040
     FM230300 25010KT P6SM VCTS BKN040CB
     FM230500 33010KT P6SM SCT015 BKN025
     FM230600 36014G22KT P6SM SCT015 BKN025
     FM230900 01016G23KT P6SM SCT015
     FM231400 03017G27KT P6SM FEW250=



000
FTUS43 KLOT 222300
TAFORD
TAF
KORD 222323Z 2300/2406 24010G16KT 6SM HZ BKN040
     FM230200 26010KT 6SM HZ VCTS BKN040CB
     FM230400 33010KT P6SM SCT020 BKN040
     FM230500 03014G20KT P6SM SCT015
     FM231400 03016G25KT P6SM FEW250
     FM240000 03010G16KT P6SM FEW250=



000
FTUS43 KLOT 222300
TAFRFD
TAF
KRFD 222323Z 2300/2324 24009KT P6SM SCT027 BKN040
     FM230300 35010KT P6SM SCT030
     FM230500 01010G16KT P6SM SCT030
     FM231400 02012G17KT P6SM BKN200=



000
FTUS43 KLOT 222200 CCA
TAFMDW
TAF COR
KMDW 222210Z 2222/2318 23013G20KT P6SM SCT035
      TEMPO 2222/2301 BKN035
     FM230130 24012G19KT P6SM VCTS BKN050CB
     FM230500 34010KT P6SM BKN040
     FM230700 03012G18KT P6SM FEW010 BKN030
     FM231400 02014G20KT P6SM BKN200=



000
FTUS43 KLOT 222200 AAB
TAFGYY
TAF AMD
KGYY 222204Z 2222/2318 22012G20KT P6SM SCT035
      TEMPO 2222/2302 BKN035
     FM230200 22012G19KT P6SM VCTS BKN050CB
     FM230600 36017G25KT P6SM SCT007 BKN025
     FM231400 01015G22KT P6SM BKN200=



000
FTUS43 KLOT 222200 AAC
TAFMDW
TAF AMD
KMDW 222204Z 2222/2318 23013G20KT P6SM SCT035
      TEMPO 2222/2301 BKN035
     FM230100 24012G19KT P6SM VCTS BKN050CB
     FM230500 34010KT P6SM BKN040
     FM230700 03012G18KT P6SM FEW010 BKN030
     FM231400 02014G20KT P6SM BKN200=



000
FTUS43 KLOT 222200 AAB
TAFGYY
TAF AMD
KGYY 222204Z 2222/2318 22012G20KT P6SM SCT035
      TEMPO 2222/2302 BKN035
     FM230200 22012G19KT P6SM VCTS BKN050CB
     FM230600 36017G25KT P6SM SCT007 BKN025
     FM231400 01015G22KT P6SM BKN200=



000
FTUS43 KLOT 222200 AAC
TAFORD
TAF AMD
KORD 222204Z 2222/2324 24012G19KT 6SM HZ FEW015 BKN035
     FM230130 24012G19KT P6SM VCTS BKN050CB
     FM230400 34010KT P6SM BKN040
     FM230600 03012G18KT P6SM FEW010 BKN030
     FM231400 02014G20KT P6SM BKN200=



000
FTUS43 KLOT 222200 AAC
TAFRFD
TAF AMD
KRFD 222204Z 2222/2318 24010G15KT P6SM BKN030
     FM222300 25010G15KT P6SM VCTS SCT030 BKN040CB
     FM230300 35010KT P6SM BKN040
     FM230600 01013KT P6SM SCT030 BKN250
     FM231400 02012G17KT P6SM BKN200=



000
FTUS43 KLOT 222200 AAC
TAFDPA
TAF AMD
KDPA 222204Z 2222/2318 23012G19KT 6SM HZ BKN035
     FM230100 24014G20KT P6SM VCTS BKN050CB
     FM230400 34010KT P6SM BKN040
     FM230600 03012G17KT P6SM FEW010 BKN030
     FM231400 02014G20KT P6SM BKN200=



000
FTUS43 KLOT 222000 AAB
TAFDPA
TAF AMD
KDPA 222056Z 2221/2318 23015G21KT P6SM BKN035
     FM230100 24014G20KT P6SM VCTS BKN050CB
     FM230400 34010KT P6SM BKN040
     FM230600 03012G17KT P6SM FEW010 BKN030
     FM231400 02014G20KT P6SM BKN200=



000
FTUS43 KLOT 222000 AAB
TAFMDW
TAF AMD
KMDW 222056Z 2221/2318 22015G22KT P6SM SCT035
      TEMPO 2222/2224 BKN035
     FM230100 24014G20KT P6SM VCTS BKN050CB
     FM230500 34010KT P6SM BKN040
     FM230700 03012G18KT P6SM FEW010 BKN030
     FM231400 02014G20KT P6SM BKN200=



000
FTUS43 KLOT 222000 AAB
TAFORD
TAF AMD
KORD 222054Z 2221/2324 24015G22KT 6SM HZ FEW015 BKN035
     FM230100 24014G20KT P6SM VCTS BKN050CB
     FM230400 34010KT P6SM BKN040
     FM230600 03012G18KT P6SM FEW010 BKN030
     FM231400 02014G20KT P6SM BKN200=



000
FTUS43 KLOT 222000 AAA
TAFORD
TAF AMD
KORD 222002Z 2220/2324 22015G22KT P6SM FEW040 SCT200
     FM230100 24014G20KT P6SM VCTS BKN050CB
     FM230400 34010KT P6SM BKN040
     FM230600 03012G18KT P6SM FEW010 BKN030
     FM231400 02014G20KT P6SM BKN200=



000
FTUS43 KLOT 222000 AAB
TAFRFD
TAF AMD
KRFD 222002Z 2220/2318 22012G17KT P6SM BKN030
     FM222300 24014G20KT P6SM VCTS SCT030 BKN040CB
     FM230300 35010KT P6SM BKN040
     FM230600 01013KT P6SM SCT030 BKN250
     FM231400 02012G17KT P6SM BKN200=



000
FTUS43 KLOT 222000 AAA
TAFMDW
TAF AMD
KMDW 222002Z 2220/2318 22015G22KT P6SM FEW040 SCT200
     FM230100 24014G20KT P6SM VCTS BKN050CB
     FM230500 34010KT P6SM BKN040
     FM230700 03012G18KT P6SM FEW010 BKN030
     FM231400 02014G20KT P6SM BKN200=



000
FTUS43 KLOT 222000 AAA
TAFDPA
TAF AMD
KDPA 222002Z 2220/2318 22015G21KT P6SM FEW035 SCT200
     FM230100 24014G20KT P6SM VCTS BKN050CB
     FM230400 34010KT P6SM BKN040
     FM230600 03012G17KT P6SM FEW010 BKN030
     FM231400 02014G20KT P6SM BKN200=



000
FTUS43 KLOT 222000 AAA
TAFGYY
TAF AMD
KGYY 222002Z 2220/2318 21014G22KT P6SM FEW040 SCT200
     FM230200 22014G20KT P6SM VCTS BKN050CB
     FM230600 36017G25KT P6SM SCT007 BKN025
     FM231400 01015G22KT P6SM BKN200=



000
FTUS43 KLOT 221800 AAA
TAFRFD
TAF AMD
KRFD 221840Z 2219/2318 22014G20KT P6SM BKN030
     FM222300 24014G20KT P6SM VCTS SCT030 BKN040CB
     FM230300 35010KT P6SM BKN040
     FM230600 01013KT P6SM SCT030 BKN250
     FM231400 02012G17KT P6SM BKN200=



000
FTUS43 KLOT 221700
TAFGYY
TAF
KGYY 221735Z 2218/2318 22014G22KT P6SM FEW045 SCT070
     FM230200 22014G20KT P6SM VCTS BKN050CB
      TEMPO 2303/2305 2SM TSRA OVC035CB
     FM230600 36017G25KT P6SM SCT007 BKN025
     FM231400 01015G22KT P6SM BKN200=



000
FTUS43 KLOT 221700
TAFRFD
TAF
KRFD 221735Z 2218/2318 22016G22KT P6SM SCT025 SCT070
     FM222300 24014G20KT P6SM VCTS BKN040CB
     FM230300 35010KT P6SM BKN040
     FM230600 01013KT P6SM SCT030 BKN250
     FM231400 02012G17KT P6SM BKN200=



000
FTUS43 KLOT 221700
TAFORD
TAF
KORD 221735Z 2218/2324 22015G22KT P6SM FEW045 SCT070
     FM230100 24014G20KT P6SM VCTS BKN050CB
      TEMPO 2301/2303 2SM TSRA OVC035CB
     FM230400 34010KT P6SM BKN040
     FM230600 03012G18KT P6SM FEW010 BKN030
     FM231400 02014G20KT P6SM BKN200=



000
FTUS43 KLOT 221700
TAFGYY
TAF
KGYY 221735Z 2218/2318 22014G22KT P6SM FEW045 SCT070
     FM230200 22014G20KT P6SM VCTS BKN050CB
      TEMPO 2303/2305 2SM TSRA OVC035CB
     FM230600 36017G25KT P6SM SCT007 BKN025
     FM231400 01015G22KT P6SM BKN200=



000
FTUS43 KLOT 221700
TAFDPA
TAF
KDPA 221735Z 2218/2318 22016G23KT P6SM FEW045 SCT070
     FM230100 24014G20KT P6SM VCTS BKN050CB
      TEMPO 2301/2303 2SM TSRA OVC035CB
     FM230400 34010KT P6SM BKN040
     FM230600 03012G17KT P6SM FEW010 BKN030
     FM231400 02014G20KT P6SM BKN200=



000
FTUS43 KLOT 221700
TAFMDW
TAF
KMDW 221735Z 2218/2318 22015G22KT P6SM FEW045 SCT070
     FM230100 24014G20KT P6SM VCTS BKN050CB
      TEMPO 2302/2304 2SM TSRA OVC035CB
     FM230500 34010KT P6SM BKN040
     FM230700 03012G18KT P6SM FEW010 BKN030
     FM231400 02014G20KT P6SM BKN200=



000
FTUS43 KLOT 221600 AAB
TAFRFD
TAF AMD
KRFD 221609Z 2216/2312 22016G22KT P6SM FEW045 SCT070
     FM222300 24014G20KT P6SM VCTS BKN040CB
     FM230300 35010KT P6SM BKN040
     FM230600 01013KT P6SM SCT030 BKN250=



000
FTUS43 KLOT 221600 AAB
TAFORD
TAF AMD
KORD 221609Z 2216/2318 22015G22KT P6SM FEW045 SCT070
     FM230100 24014G20KT P6SM VCTS BKN050CB
      TEMPO 2301/2303 2SM TSRA OVC035CB
     FM230400 34010KT P6SM BKN040
     FM230600 03012KT P6SM FEW010 BKN030
     FM231400 02013G19KT P6SM BKN200=



000
FTUS43 KLOT 221600 AAB
TAFGYY
TAF AMD
KGYY 221609Z 2216/2312 22014G22KT P6SM FEW045 SCT070
     FM230200 22014G20KT P6SM VCTS BKN050CB
      TEMPO 2303/2305 2SM TSRA OVC035CB
     FM230600 36015G25KT P6SM SCT007 BKN025=



000
FTUS43 KLOT 221600 AAB
TAFDPA
TAF AMD
KDPA 221609Z 2216/2312 22016G23KT P6SM FEW045 SCT070
     FM230100 24014G20KT P6SM VCTS BKN050CB
      TEMPO 2301/2303 2SM TSRA OVC035CB
     FM230400 34010KT P6SM BKN040
     FM230600 03012KT P6SM FEW010 BKN030=



000
FTUS43 KLOT 221600 AAB
TAFMDW
TAF AMD
KMDW 221609Z 2216/2312 22015G22KT P6SM FEW045 SCT070
     FM230100 24014G20KT P6SM VCTS BKN050CB
      TEMPO 2302/2304 2SM TSRA OVC035CB
     FM230500 34010KT P6SM BKN040
     FM230700 03012KT P6SM FEW010 BKN030=



000
FTUS43 KLOT 221600 AAB
TAFGYY
TAF AMD
KGYY 221609Z 2216/2312 22014G22KT P6SM FEW045 SCT070
     FM230200 22014G20KT P6SM VCTS BKN050CB
      TEMPO 2303/2305 2SM TSRA OVC035CB
     FM230600 36015G25KT P6SM SCT007 BKN025=



000
FTUS43 KLOT 221300 AAA
TAFRFD
TAF AMD
KRFD 221356Z 2214/2312 20013G19KT P6SM SCT120
     FM221800 22017G24KT P6SM FEW045 SCT120
     FM222300 24014G20KT P6SM VCTS BKN050CB PROB30 2300/2303 3SM
      TSRA OVC040CB
     FM230400 33010KT P6SM BKN040
     FM230700 01013KT P6SM SCT030 BKN250=



000
FTUS43 KLOT 221300 AAA
TAFMDW
TAF AMD
KMDW 221356Z 2214/2312 20012G18KT P6SM SCT200
     FM221800 22015G22KT P6SM FEW045
     FM230100 24014G20KT P6SM VCTS BKN050CB PROB30 2302/2305 3SM
      TSRA OVC040CB
     FM230500 31010KT P6SM FEW010 BKN040
     FM230700 03012KT P6SM BKN030=



000
FTUS43 KLOT 221300 AAA
TAFDPA
TAF AMD
KDPA 221356Z 2214/2312 20012G18KT P6SM SCT200
     FM221800 21016G23KT P6SM FEW045
     FM230100 24014G20KT P6SM VCTS BKN050CB PROB30 2302/2305 3SM
      TSRA OVC040CB
     FM230500 31010KT P6SM BKN040
     FM230700 03012KT P6SM FEW010 BKN030=



000
FTUS43 KLOT 221300 AAA
TAFGYY
TAF AMD
KGYY 221356Z 2214/2312 19012G18KT P6SM FEW045 SCT200
     FM230100 22014G20KT P6SM VCTS BKN050CB PROB30 2303/2306 3SM
      TSRA OVC040CB
     FM230700 09016G25KT P6SM SCT007 BKN025=



000
FTUS43 KLOT 221300 AAA
TAFGYY
TAF AMD
KGYY 221356Z 2214/2312 19012G18KT P6SM FEW045 SCT200
     FM230100 22014G20KT P6SM VCTS BKN050CB PROB30 2303/2306 3SM
      TSRA OVC040CB
     FM230700 09016G25KT P6SM SCT007 BKN025=



000
FTUS43 KLOT 221300 AAA
TAFORD
TAF AMD
KORD 221356Z 2214/2318 20012G18KT P6SM SCT200
     FM221800 22015G22KT P6SM FEW045
     FM230100 24014G20KT P6SM VCTS BKN050CB PROB30 2302/2305 3SM
      TSRA OVC040CB
     FM230500 31010KT P6SM BKN040
     FM230700 03012KT P6SM FEW010 BKN030
     FM231400 02013G19KT P6SM BKN250=



000
FTUS43 KLOT 221100
TAFORD
TAF
KORD 221123Z 2212/2318 19007KT P6SM FEW250
     FM221400 20012G18KT P6SM BKN200
     FM221800 22016G23KT P6SM FEW045
     FM230100 24014G20KT P6SM VCTS BKN050CB PROB30 2302/2305 3SM
      TSRA OVC040CB
     FM230500 31010KT P6SM BKN040
     FM230700 03012KT P6SM FEW010 BKN030
     FM231400 02013G19KT P6SM BKN250=



000
FTUS43 KLOT 221100
TAFGYY
TAF
KGYY 221123Z 2212/2312 18005KT 6SM BR FEW250
     FM221300 21012G18KT P6SM FEW035 BKN200
     FM230100 22014G20KT P6SM VCTS BKN050CB PROB30 2303/2306 3SM
      TSRA OVC040CB
     FM230700 09016G25KT P6SM SCT007 BKN025=



000
FTUS43 KLOT 221100
TAFRFD
TAF
KRFD 221123Z 2212/2312 19009KT P6SM FEW100 FEW250
     FM221400 20013G19KT P6SM BKN120
     FM221800 22017G24KT P6SM FEW045 SCT120
     FM222300 24014G20KT P6SM VCTS BKN050CB PROB30 2300/2303 3SM
      TSRA OVC040CB
     FM230400 33010KT P6SM BKN040
     FM230700 01013KT P6SM SCT030 BKN250=



000
FTUS43 KLOT 221100
TAFDPA
TAF
KDPA 221123Z 2212/2312 18007KT P6SM FEW250
     FM221400 20012G18KT P6SM BKN200
     FM221800 22016G23KT P6SM FEW045
     FM230100 24014G20KT P6SM VCTS BKN050CB PROB30 2302/2305 3SM
      TSRA OVC040CB
     FM230500 31010KT P6SM BKN040
     FM230700 03012KT P6SM FEW010 BKN030=



000
FTUS43 KLOT 221100
TAFMDW
TAF
KMDW 221123Z 2212/2312 19007KT P6SM FEW250
     FM221400 20012G18KT P6SM BKN200
     FM221800 22016G23KT P6SM FEW045
     FM230100 24014G20KT P6SM VCTS BKN050CB PROB30 2302/2305 3SM
      TSRA OVC040CB
     FM230500 31010KT P6SM FEW010 BKN040
     FM230700 03012KT P6SM BKN030=



000
FTUS43 KLOT 221100
TAFGYY
TAF
KGYY 221123Z 2212/2312 18005KT 6SM BR FEW250
     FM221300 21012G18KT P6SM FEW035 BKN200
     FM230100 22014G20KT P6SM VCTS BKN050CB PROB30 2303/2306 3SM
      TSRA OVC040CB
     FM230700 09016G25KT P6SM SCT007 BKN025=



000
FTUS43 KLOT 220900 AAA
TAFGYY
TAF AMD
KGYY 220901Z 2209/2306 18005KT 6SM BR FEW250
     FM221300 21012G18KT P6SM FEW035 BKN200
     FM230000 22014G20KT P6SM VCTS BKN050CB PROB30 2303/2306 3SM
      TSRA OVC040CB=



000
FTUS43 KLOT 220900 AAA
TAFRFD
TAF AMD
KRFD 220901Z 2209/2306 19009KT P6SM FEW100 FEW250
     FM221400 20013G19KT P6SM BKN120
     FM221800 22017G24KT P6SM FEW045 SCT120
     FM222300 24014G20KT P6SM VCTS BKN050CB PROB30 2300/2304 3SM
      TSRA OVC040CB
     FM230400 33010KT P6SM BKN040=



000
FTUS43 KLOT 220900 AAA
TAFDPA
TAF AMD
KDPA 220901Z 2209/2306 18007KT P6SM FEW250
     FM221400 20012G18KT P6SM BKN200
     FM221800 22016G23KT P6SM FEW045
     FM230000 24014G20KT P6SM VCTS BKN050CB PROB30 2301/2305 3SM
      TSRA OVC040CB
     FM230500 31010KT P6SM BKN040=



000
FTUS43 KLOT 220900 AAA
TAFMDW
TAF AMD
KMDW 220901Z 2209/2306 19007KT P6SM FEW250
     FM221400 20012G18KT P6SM BKN200
     FM221800 22016G23KT P6SM FEW045
     FM230000 24014G20KT P6SM VCTS BKN050CB PROB30 2302/2305 3SM
      TSRA OVC040CB
     FM230500 31010KT P6SM BKN040=



000
FTUS43 KLOT 220900 AAA
TAFGYY
TAF AMD
KGYY 220901Z 2209/2306 18005KT 6SM BR FEW250
     FM221300 21012G18KT P6SM FEW035 BKN200
     FM230000 22014G20KT P6SM VCTS BKN050CB PROB30 2303/2306 3SM
      TSRA OVC040CB=



000
FTUS43 KLOT 220900 AAA
TAFORD
TAF AMD
KORD 220901Z 2209/2312 19007KT P6SM FEW250
     FM221400 20012G18KT P6SM BKN200
     FM221800 22016G23KT P6SM FEW045
     FM230000 24014G20KT P6SM VCTS BKN050CB PROB30 2302/2305 3SM
      TSRA OVC040CB
     FM230500 31010KT P6SM BKN040
     FM230700 03012KT P6SM BKN030=



000
FTUS43 KLOT 220500
TAFGYY
TAF
KGYY 220525Z 2206/2306 17005KT P6SM FEW250
     FM221400 21012G18KT P6SM FEW035 BKN200
     FM230000 22014G20KT P6SM VCTS BKN050CB PROB30 2303/2306 3SM
      TSRA OVC040CB=



000
FTUS43 KLOT 220500
TAFGYY
TAF
KGYY 220525Z 2206/2306 17005KT P6SM FEW250
     FM221400 21012G18KT P6SM FEW035 BKN200
     FM230000 22014G20KT P6SM VCTS BKN050CB PROB30 2303/2306 3SM
      TSRA OVC040CB=



000
FTUS43 KLOT 220500
TAFORD
TAF
KORD 220525Z 2206/2312 17007KT P6SM FEW250
     FM221400 20012G18KT P6SM BKN200
     FM221800 22016G23KT P6SM FEW045
     FM230000 24014G20KT P6SM VCTS BKN050CB PROB30 2302/2305 3SM
      TSRA OVC040CB
     FM230500 31010KT P6SM BKN040
     FM230700 03012KT P6SM BKN030=



000
FTUS43 KLOT 220500
TAFDPA
TAF
KDPA 220525Z 2206/2306 17007KT P6SM FEW250
     FM221400 20012G18KT P6SM BKN200
     FM221800 22016G23KT P6SM FEW045
     FM230000 24014G20KT P6SM VCTS BKN050CB PROB30 2301/2305 3SM
      TSRA OVC040CB
     FM230500 31010KT P6SM BKN040=



000
FTUS43 KLOT 220500
TAFRFD
TAF
KRFD 220525Z 2206/2306 18009KT P6SM FEW100 FEW250
     FM221400 20013G19KT P6SM BKN120
     FM221800 22017G24KT P6SM FEW045 SCT120
     FM222300 24014G20KT P6SM VCTS BKN050CB PROB30 2300/2304 3SM
      TSRA OVC040CB
     FM230400 33010KT P6SM BKN040=



000
FTUS43 KLOT 220500
TAFMDW
TAF
KMDW 220525Z 2206/2306 17007KT P6SM FEW250
     FM221400 20012G18KT P6SM BKN200
     FM221800 22016G23KT P6SM FEW045
     FM230000 24014G20KT P6SM VCTS BKN050CB PROB30 2302/2305 3SM
      TSRA OVC040CB
     FM230500 31010KT P6SM BKN040=



000
FTUS43 KLOT 220200 AAA
TAFGYY
TAF AMD
KGYY 220258Z 2203/2224 17005KT P6SM FEW250
     FM221400 20012G18KT P6SM FEW035 BKN200=



000
FTUS43 KLOT 220200 AAA
TAFRFD
TAF AMD
KRFD 220258Z 2203/2224 18009KT P6SM FEW100 FEW250
     FM221400 20013G19KT P6SM BKN120
     FM221800 22017G24KT P6SM FEW045 SCT120=



000
FTUS43 KLOT 220200 AAA
TAFGYY
TAF AMD
KGYY 220258Z 2203/2224 17005KT P6SM FEW250
     FM221400 20012G18KT P6SM FEW035 BKN200=



000
FTUS43 KLOT 220200 AAA
TAFDPA
TAF AMD
KDPA 220258Z 2203/2224 17007KT P6SM FEW250
     FM221400 20012G18KT P6SM BKN200
     FM221800 22016G23KT P6SM FEW045=



000
FTUS43 KLOT 220200 AAA
TAFORD
TAF AMD
KORD 220258Z 2203/2306 17007KT P6SM FEW250
     FM221400 20012G18KT P6SM BKN200
     FM221800 22016G23KT P6SM FEW045
     FM230000 22014G20KT P6SM VCTS BKN050CB PROB30 2301/2305 3SM
      TSRA OVC040CB
     FM230500 31010KT P6SM BKN040=



000
FTUS43 KLOT 220200 AAA
TAFMDW
TAF AMD
KMDW 220258Z 2203/2224 17007KT P6SM FEW250
     FM221400 20012G18KT P6SM BKN200
     FM221800 22016G23KT P6SM FEW045=



000
FTUS43 KLOT 212300
TAFGYY
TAF
KGYY 212322Z 2200/2224 19010KT P6SM FEW045
     FM220100 17005KT P6SM FEW250
     FM221400 20012G18KT P6SM FEW035 BKN200=



000
FTUS43 KLOT 212300
TAFORD
TAF
KORD 212322Z 2200/2306 19010KT P6SM SKC
     FM220100 17007KT P6SM FEW250
     FM221400 20012G18KT P6SM BKN200
     FM221800 22016G23KT P6SM FEW045
     FM230000 22014G20KT P6SM VCTS BKN050CB PROB30 2301/2305 3SM
      TSRA OVC040CB
     FM230500 31010KT P6SM BKN040=



000
FTUS43 KLOT 212300
TAFDPA
TAF
KDPA 212322Z 2200/2224 19010KT P6SM SKC
     FM220100 17007KT P6SM FEW250
     FM221400 20012G18KT P6SM BKN200
     FM221800 22016G23KT P6SM FEW045=



000
FTUS43 KLOT 212300
TAFMDW
TAF
KMDW 212322Z 2200/2224 19010KT P6SM SKC
     FM220100 17007KT P6SM FEW250
     FM221400 20012G18KT P6SM BKN200
     FM221800 22016G23KT P6SM FEW045=



000
FTUS43 KLOT 212300
TAFGYY
TAF
KGYY 212322Z 2200/2224 19010KT P6SM FEW045
     FM220100 17005KT P6SM FEW250
     FM221400 20012G18KT P6SM FEW035 BKN200=



000
FTUS43 KLOT 212300
TAFRFD
TAF
KRFD 212322Z 2200/2224 19010G15KT P6SM FEW040
     FM220130 18009KT P6SM FEW100 FEW250
     FM221400 20013G19KT P6SM BKN120
     FM221800 22017G24KT P6SM FEW045 SCT120=



000
FTUS43 KLOT 212100 AAB
TAFDPA
TAF AMD
KDPA 212153Z 2122/2218 19011KT P6SM FEW045
     FM220100 17006KT P6SM FEW250
     FM221400 20012G18KT P6SM FEW035 BKN200=



000
FTUS43 KLOT 212100 AAB
TAFORD
TAF AMD
KORD 212153Z 2122/2224 19011KT P6SM FEW045
     FM220100 17007KT P6SM FEW250
     FM221400 20012G18KT P6SM FEW035 BKN200
     FM221800 21015G22KT P6SM FEW050=



000
FTUS43 KLOT 212100 AAB
TAFRFD
TAF AMD
KRFD 212153Z 2122/2218 19011G16KT P6SM FEW040
     FM220100 18007KT P6SM FEW250
     FM221400 20013G19KT P6SM FEW035 BKN200=



000
FTUS43 KLOT 212100 AAB
TAFGYY
TAF AMD
KGYY 212153Z 2122/2218 19010KT P6SM FEW045
     FM220100 17005KT P6SM FEW250
     FM221400 20012G18KT P6SM FEW035 BKN200=



000
FTUS43 KLOT 212100 AAB
TAFMDW
TAF AMD
KMDW 212153Z 2122/2218 19011KT P6SM FEW045
     FM220100 18007KT P6SM FEW250
     FM221400 20012G18KT P6SM FEW035 BKN200=



000
FTUS43 KLOT 212100 AAB
TAFGYY
TAF AMD
KGYY 212153Z 2122/2218 19010KT P6SM FEW045
     FM220100 17005KT P6SM FEW250
     FM221400 20012G18KT P6SM FEW035 BKN200=



000
FTUS43 KLOT 211900 AAA
TAFGYY
TAF AMD
KGYY 211958Z 2120/2218 19011KT P6SM FEW045
     FM220100 17005KT P6SM FEW250
     FM221400 20012G18KT P6SM FEW035 BKN200=



000
FTUS43 KLOT 211900 AAA
TAFMDW
TAF AMD
KMDW 211958Z 2120/2218 19011KT P6SM FEW045
     FM220100 18007KT P6SM FEW250
     FM221400 20012G18KT P6SM FEW035 BKN200=



000
FTUS43 KLOT 211900 AAA
TAFGYY
TAF AMD
KGYY 211958Z 2120/2218 19011KT P6SM FEW045
     FM220100 17005KT P6SM FEW250
     FM221400 20012G18KT P6SM FEW035 BKN200=



000
FTUS43 KLOT 211900 AAA
TAFRFD
TAF AMD
KRFD 211958Z 2120/2218 19011G16KT P6SM FEW045
     FM220100 18007KT P6SM FEW250
     FM221400 20013G19KT P6SM FEW035 BKN200=



000
FTUS43 KLOT 211900 AAA
TAFDPA
TAF AMD
KDPA 211958Z 2120/2218 19011KT P6SM FEW045
     FM220100 17006KT P6SM FEW250
     FM221400 20012G18KT P6SM FEW035 BKN200=



000
FTUS43 KLOT 211900 AAA
TAFORD
TAF AMD
KORD 211958Z 2120/2224 19011KT P6SM FEW045
     FM220100 18007KT P6SM FEW250
     FM221400 20012G18KT P6SM FEW035 BKN200
     FM221800 21015G22KT P6SM FEW050=



000
FTUS43 KLOT 211700
TAFMDW
TAF
KMDW 211730Z 2118/2218 19011KT P6SM FEW045
     FM220100 18007KT P6SM FEW250
     FM221400 20012G18KT P6SM FEW035 BKN200=



000
FTUS43 KLOT 211700
TAFGYY
TAF
KGYY 211730Z 2118/2218 19011KT P6SM FEW045
     FM220100 17005KT P6SM FEW250
     FM221400 20012G18KT P6SM FEW035 BKN200=



000
FTUS43 KLOT 211700
TAFDPA
TAF
KDPA 211730Z 2118/2218 19011KT P6SM FEW045
     FM220100 17006KT P6SM FEW250
     FM221400 20012G18KT P6SM FEW035 BKN200=



000
FTUS43 KLOT 211700
TAFRFD
TAF
KRFD 211730Z 2118/2218 19011G16KT P6SM FEW045
     FM220100 18007KT P6SM FEW250
     FM221400 20013G19KT P6SM FEW035 BKN200=



000
FTUS43 KLOT 211700
TAFORD
TAF
KORD 211730Z 2118/2224 19011KT P6SM FEW045
     FM220100 18007KT P6SM FEW250
     FM221400 20012G18KT P6SM FEW035 BKN200
     FM221800 21015G22KT P6SM FEW050=



000
FTUS43 KLOT 211600 AAB
TAFORD
TAF AMD
KORD 211600Z 2116/2218 19011KT P6SM FEW045
     FM220100 18007KT P6SM FEW250
     FM221600 20012G18KT P6SM SCT150 BKN250=



000
FTUS43 KLOT 211600 AAB
TAFDPA
TAF AMD
KDPA 211600Z 2116/2212 19011KT P6SM FEW045
     FM220100 18007KT P6SM FEW250=



000
FTUS43 KLOT 211600 AAB
TAFRFD
TAF AMD
KRFD 211600Z 2116/2212 19011G16KT P6SM FEW050
     FM220100 17007KT P6SM FEW250=



000
FTUS43 KLOT 211600 AAB
TAFMDW
TAF AMD
KMDW 211600Z 2116/2212 20011KT P6SM FEW045
     FM220100 18007KT P6SM FEW250=



000
FTUS43 KLOT 211600 AAB
TAFGYY
TAF AMD
KGYY 211600Z 2116/2212 19010KT P6SM FEW045
     FM220100 17005KT P6SM FEW250=



000
FTUS43 KLOT 211600 AAB
TAFGYY
TAF AMD
KGYY 211600Z 2116/2212 19010KT P6SM FEW045
     FM220100 17005KT P6SM FEW250=



000
FTUS43 KLOT 211400 AAA
TAFGYY
TAF AMD
KGYY 211400Z 2114/2212 18006KT P6SM FEW250
     FM211600 19010KT P6SM FEW045=



000
FTUS43 KLOT 211400 AAA
TAFORD
TAF AMD
KORD 211400Z 2114/2218 20008KT P6SM FEW250
     FM211600 19011KT P6SM FEW045
     FM220100 18007KT P6SM FEW250
     FM221600 20012G18KT P6SM SCT150 BKN250=



000
FTUS43 KLOT 211400 AAA
TAFDPA
TAF AMD
KDPA 211400Z 2114/2212 18009KT P6SM FEW250
     FM211600 19011KT P6SM FEW045
     FM220100 18007KT P6SM FEW250=



000
FTUS43 KLOT 211400 AAA
TAFRFD
TAF AMD
KRFD 211400Z 2114/2212 19010KT P6SM FEW045
     FM211800 19011G16KT P6SM FEW050
     FM220100 17007KT P6SM FEW250=



000
FTUS43 KLOT 211400 AAA
TAFGYY
TAF AMD
KGYY 211400Z 2114/2212 18006KT P6SM FEW250
     FM211600 19010KT P6SM FEW045=



000
FTUS43 KLOT 211400 AAA
TAFMDW
TAF AMD
KMDW 211400Z 2114/2212 20008KT P6SM FEW250
     FM211600 19011KT P6SM FEW045
     FM220100 18007KT P6SM FEW250=



000
FTUS43 KLOT 211100
TAFDPA
TAF
KDPA 211125Z 2112/2212 VRB02KT 3SM BR FEW250
     FM211230 17004KT P6SM FEW250
     FM211600 19011KT P6SM FEW045
     FM220100 18007KT P6SM FEW250=



000
FTUS43 KLOT 211100
TAFRFD
TAF
KRFD 211125Z 2112/2212 17005KT P6SM FEW250
     FM211500 19010KT P6SM FEW045
     FM211800 19011G16KT P6SM FEW050
     FM220100 17007KT P6SM FEW250=



000
FTUS43 KLOT 211100
TAFGYY
TAF
KGYY 211125Z 2112/2212 VRB02KT 3SM BR SCT007
     FM211230 18006KT P6SM FEW250
     FM211600 19010KT P6SM FEW045=



000
FTUS43 KLOT 211100
TAFORD
TAF
KORD 211125Z 2112/2218 20005KT P6SM FEW250
     FM211600 19011KT P6SM FEW045
     FM220100 18007KT P6SM FEW250
     FM221600 20012G18KT P6SM SCT150 BKN250=



000
FTUS43 KLOT 211100
TAFGYY
TAF
KGYY 211125Z 2112/2212 VRB02KT 3SM BR SCT007
     FM211230 18006KT P6SM FEW250
     FM211600 19010KT P6SM FEW045=



000
FTUS43 KLOT 211100
TAFMDW
TAF
KMDW 211125Z 2112/2212 20005KT P6SM FEW250
     FM211600 19011KT P6SM FEW045
     FM220100 18007KT P6SM FEW250=



000
FTUS43 KLOT 210800 AAB
TAFDPA
TAF AMD
KDPA 210859Z 2109/2206 19003KT 6SM BR FEW250
     FM211000 VRB02KT 4SM BR FEW250
     FM211230 17004KT P6SM FEW250
     FM211600 19011KT P6SM FEW045
     FM220100 18008KT P6SM FEW250=



000
FTUS43 KLOT 210800 AAA
TAFORD
TAF AMD
KORD 210859Z 2109/2212 20005KT P6SM FEW250
     FM211600 19011KT P6SM FEW045
     FM220100 18008KT P6SM FEW250=



000
FTUS43 KLOT 210800 AAA
TAFRFD
TAF AMD
KRFD 210859Z 2109/2206 17005KT P6SM FEW250
     FM211500 19010KT P6SM FEW045
     FM211800 19011G16KT P6SM FEW050
     FM220100 17008KT P6SM FEW250=



000
FTUS43 KLOT 210800 AAA
TAFMDW
TAF AMD
KMDW 210859Z 2109/2206 20005KT P6SM FEW250
     FM211600 19011KT P6SM FEW045
     FM220100 18008KT P6SM FEW250=



000
FTUS43 KLOT 210800 AAB
TAFGYY
TAF AMD
KGYY 210859Z 2109/2206 VRB02KT 5SM BR SCT007
     FM211000 VRB02KT 2SM BR SCT007
     FM211230 18006KT P6SM FEW250
     FM211600 19010KT P6SM FEW045=



000
FTUS43 KLOT 210600 AAA
TAFDPA
TAF AMD
KDPA 210658Z 2107/2206 19003KT 5SM BR FEW250
     FM210900 VRB02KT 2SM BR FEW250
     FM211230 17004KT P6SM FEW250
     FM211600 19011KT P6SM FEW045
     FM220100 18008KT P6SM FEW250=



000
FTUS43 KLOT 210600 AAA
TAFGYY
TAF AMD
KGYY 210631Z 2107/2206 VRB03KT 2SM BR MIFG FEW250
     FM210900 VRB02KT 1SM BR MIFG FEW250
     FM211230 18006KT P6SM FEW250
     FM211600 19010KT P6SM FEW045=



000
FTUS43 KLOT 210600 AAA
TAFGYY
TAF AMD
KGYY 210631Z 2107/2206 VRB03KT 2SM BR MIFG FEW250
     FM210900 VRB02KT 1SM BR MIFG FEW250
     FM211230 18006KT P6SM FEW250
     FM211600 19010KT P6SM FEW045=



000
FTUS43 KLOT 210500
TAFGYY
TAF
KGYY 210520Z 2106/2206 VRB03KT 5SM BR SCT250
     FM210800 VRB03KT 3SM BR MIFG FEW250
     FM211230 18006KT P6SM FEW250
     FM211600 19010KT P6SM FEW045=



000
FTUS43 KLOT 210500
TAFRFD
TAF
KRFD 210520Z 2106/2206 17005KT P6SM SCT250
     FM211500 19010KT P6SM FEW045
     FM211800 19011G16KT P6SM FEW050
     FM220100 17008KT P6SM FEW250=



000
FTUS43 KLOT 210500
TAFDPA
TAF
KDPA 210520Z 2106/2206 19003KT P6SM SCT250
     FM211600 19011KT P6SM FEW045
     FM220100 18008KT P6SM FEW250=



000
FTUS43 KLOT 210500
TAFMDW
TAF
KMDW 210520Z 2106/2206 20005KT P6SM SCT250
     FM211600 19011KT P6SM FEW045
     FM220100 18008KT P6SM FEW250=



000
FTUS43 KLOT 210500
TAFGYY
TAF
KGYY 210520Z 2106/2206 VRB03KT 5SM BR SCT250
     FM210800 VRB03KT 3SM BR MIFG FEW250
     FM211230 18006KT P6SM FEW250
     FM211600 19010KT P6SM FEW045=



000
FTUS43 KLOT 210500
TAFORD
TAF
KORD 210520Z 2106/2212 20005KT P6SM SCT250
     FM211600 19011KT P6SM FEW045
     FM220100 18008KT P6SM FEW250=



000
FTUS43 KLOT 210200 AAA
TAFGYY
TAF AMD
KGYY 210259Z 2103/2124 VRB03KT 6SM BR SCT250
     FM210800 VRB03KT 3SM BR MIFG FEW250
     FM211230 18006KT P6SM FEW250
     FM211600 19010KT P6SM FEW045=



000
FTUS43 KLOT 210200 AAA
TAFORD
TAF AMD
KORD 210259Z 2103/2206 20005KT P6SM SCT250
     FM211600 19011KT P6SM FEW045
     FM220100 18008KT P6SM FEW250=



000
FTUS43 KLOT 210200 AAA
TAFDPA
TAF AMD
KDPA 210259Z 2103/2124 19003KT P6SM SCT250
     FM211600 19011KT P6SM FEW045=



000
FTUS43 KLOT 210200 AAA
TAFGYY
TAF AMD
KGYY 210259Z 2103/2124 VRB03KT 6SM BR SCT250
     FM210800 VRB03KT 3SM BR MIFG FEW250
     FM211230 18006KT P6SM FEW250
     FM211600 19010KT P6SM FEW045=



000
FTUS43 KLOT 210200 AAA
TAFRFD
TAF AMD
KRFD 210259Z 2103/2124 17005KT P6SM SCT250
     FM211500 19010KT P6SM FEW045
     FM211800 19011G16KT P6SM FEW050=



000
FTUS43 KLOT 210200 AAA
TAFMDW
TAF AMD
KMDW 210259Z 2103/2124 20005KT P6SM SCT250
     FM211600 19011KT P6SM FEW045=



000
FTUS43 KLOT 202300
TAFGYY
TAF
KGYY 202328Z 2100/2124 08009KT P6SM FEW050
     FM210100 18005KT P6SM SCT250
      TEMPO 2109/2112 4SM BR
     FM211600 19010KT P6SM FEW045=



000
FTUS43 KLOT 202300
TAFMDW
TAF
KMDW 202328Z 2100/2124 20008KT P6SM FEW060
     FM210200 18005KT P6SM SCT250
     FM211600 19011KT P6SM FEW045=



000
FTUS43 KLOT 202300
TAFDPA
TAF
KDPA 202328Z 2100/2124 20008KT P6SM FEW060
     FM210200 19005KT P6SM SCT250
     FM211600 19011KT P6SM FEW045=



000
FTUS43 KLOT 202300
TAFRFD
TAF
KRFD 202328Z 2100/2124 18009KT P6SM FEW050
     FM210100 17005KT P6SM SCT250
     FM211500 19010KT P6SM FEW045
     FM211800 19011G16KT P6SM FEW050=



000
FTUS43 KLOT 202300
TAFORD
TAF
KORD 202328Z 2100/2206 20008KT P6SM FEW060
     FM210200 18005KT P6SM SCT250
     FM211600 19011KT P6SM FEW045
     FM220100 18008KT P6SM FEW250=



000
FTUS43 KLOT 202300
TAFGYY
TAF
KGYY 202328Z 2100/2124 08009KT P6SM FEW050
     FM210100 18005KT P6SM SCT250
      TEMPO 2109/2112 4SM BR
     FM211600 19010KT P6SM FEW045=



000
FTUS43 KLOT 202200 AAB
TAFGYY
TAF AMD
KGYY 202201Z 2022/2118 08010KT P6SM BKN050
     FM210200 18003KT P6SM SCT250
     FM211500 19010KT P6SM FEW040=



000
FTUS43 KLOT 202200 AAB
TAFMDW
TAF AMD
KMDW 202201Z 2022/2118 19008KT P6SM SCT060
     FM210000 11007KT P6SM FEW060
     FM210200 16004KT P6SM SCT250
     FM211500 19010KT P6SM FEW040=



000
FTUS43 KLOT 202200 AAB
TAFDPA
TAF AMD
KDPA 202201Z 2022/2118 19009KT P6SM FEW050
     FM210100 18003KT P6SM SCT250
     FM211500 19010KT P6SM FEW040=



000
FTUS43 KLOT 202200 AAB
TAFRFD
TAF AMD
KRFD 202201Z 2022/2118 19010KT P6SM FEW050
     FM210100 17005KT P6SM SCT250
     FM211500 19011KT P6SM FEW040=



000
FTUS43 KLOT 202200 AAB
TAFGYY
TAF AMD
KGYY 202201Z 2022/2118 08010KT P6SM BKN050
     FM210200 18003KT P6SM SCT250
     FM211500 19010KT P6SM FEW040=



000
FTUS43 KLOT 202200 AAB
TAFORD
TAF AMD
KORD 202201Z 2022/2124 19008KT P6SM FEW060
     FM210100 12007KT P6SM FEW060 SCT250
     FM210300 16004KT P6SM SCT250
     FM211500 19010KT P6SM FEW040=



000
FTUS43 KLOT 201900 AAA
TAFRFD
TAF AMD
KRFD 201959Z 2020/2118 20008KT P6SM SCT050
     FM210100 17005KT P6SM SCT250
     FM211500 19011KT P6SM FEW040=



000
FTUS43 KLOT 201900 AAA
TAFDPA
TAF AMD
KDPA 201959Z 2020/2118 20008KT P6SM SCT050
     FM210100 18003KT P6SM SCT250
     FM211500 19010KT P6SM FEW040=



000
FTUS43 KLOT 201900 AAA
TAFORD
TAF AMD
KORD 201959Z 2020/2124 20008KT P6SM SCT050
     FM202330 11009KT P6SM FEW060 SCT250
     FM210200 16004KT P6SM SCT250
     FM211500 19010KT P6SM FEW040=



000
FTUS43 KLOT 201900 AAA
TAFMDW
TAF AMD
KMDW 201959Z 2020/2118 21008KT P6SM SCT050
     FM202200 10009KT P6SM FEW060 SCT250
     FM210200 16004KT P6SM SCT250
     FM211500 19010KT P6SM FEW040=



000
FTUS43 KLOT 201900 AAA
TAFGYY
TAF AMD
KGYY 201959Z 2020/2118 06006KT P6SM SCT050
     FM210200 18003KT P6SM SCT250
     FM211500 19010KT P6SM FEW040=



000
FTUS43 KLOT 201900 AAA
TAFGYY
TAF AMD
KGYY 201959Z 2020/2118 06006KT P6SM SCT050
     FM210200 18003KT P6SM SCT250
     FM211500 19010KT P6SM FEW040=



000
FTUS43 KLOT 201700
TAFMDW
TAF
KMDW 201730Z 2018/2118 20008KT P6SM SCT050
     FM202000 10009KT P6SM FEW060 SCT250
     FM210200 16004KT P6SM SCT250
     FM211500 19010KT P6SM FEW040=



000
FTUS43 KLOT 201700
TAFDPA
TAF
KDPA 201730Z 2018/2118 20008KT P6SM SCT050
     FM210100 18003KT P6SM SCT250
     FM211500 19010KT P6SM FEW040=



000
FTUS43 KLOT 201700
TAFORD
TAF
KORD 201730Z 2018/2124 20008KT P6SM SCT050
     FM202200 11009KT P6SM FEW060 SCT250
     FM210200 16004KT P6SM SCT250
     FM211500 19010KT P6SM FEW040=



000
FTUS43 KLOT 201700
TAFGYY
TAF
KGYY 201730Z 2018/2118 19006KT P6SM SCT050
     FM201900 04006KT P6SM SCT050
     FM210200 18003KT P6SM SCT250
     FM211500 19010KT P6SM FEW040=



000
FTUS43 KLOT 201700
TAFRFD
TAF
KRFD 201730Z 2018/2118 20008KT P6SM SCT050
     FM210100 17005KT P6SM SCT250
     FM211500 19011KT P6SM FEW040=



000
FTUS43 KLOT 201700
TAFGYY
TAF
KGYY 201730Z 2018/2118 19006KT P6SM SCT050
     FM201900 04006KT P6SM SCT050
     FM210200 18003KT P6SM SCT250
     FM211500 19010KT P6SM FEW040=



000
FTUS43 KLOT 201600 AAC
TAFGYY
TAF AMD
KGYY 201600Z 2016/2112 18005KT P6SM SCT050
     FM201900 06005KT P6SM FEW060 SCT250
     FM210200 18005KT P6SM SCT250=



000
FTUS43 KLOT 201600 AAB
TAFORD
TAF AMD
KORD 201600Z 2016/2118 20007KT P6SM SCT050
     FM202200 11009KT P6SM FEW060 SCT250
     FM210200 14005KT P6SM SCT250
     FM210600 21007KT P6SM FEW250=



000
FTUS43 KLOT 201600 AAB
TAFRFD
TAF AMD
KRFD 201600Z 2016/2112 20008KT P6SM SCT050
     FM210100 17005KT P6SM SCT250=



000
FTUS43 KLOT 201600 AAB
TAFDPA
TAF AMD
KDPA 201600Z 2016/2112 19007KT P6SM SCT050
     FM210100 19003KT P6SM SCT250=



000
FTUS43 KLOT 201600 AAC
TAFMDW
TAF AMD
KMDW 201600Z 2016/2112 20007KT P6SM SCT050
     FM202100 11009KT P6SM FEW060 SCT250
     FM210200 14005KT P6SM SCT250=



000
FTUS43 KLOT 201600 AAC
TAFGYY
TAF AMD
KGYY 201600Z 2016/2112 18005KT P6SM SCT050
     FM201900 06005KT P6SM FEW060 SCT250
     FM210200 18005KT P6SM SCT250=



000
FTUS43 KLOT 201400 AAA
TAFDPA
TAF AMD
KDPA 201400Z 2014/2112 19007KT P6SM SCT050 BKN250
     FM210100 19003KT P6SM SCT250=



000
FTUS43 KLOT 201400 AAA
TAFRFD
TAF AMD
KRFD 201400Z 2014/2112 20008KT P6SM SCT050 BKN250
     FM210100 17005KT P6SM SCT250=



000
FTUS43 KLOT 201400 AAB
TAFGYY
TAF AMD
KGYY 201400Z 2014/2112 00000KT P6SM BKN060
     FM201600 18007KT P6SM SCT050 BKN250
     FM202000 07005KT P6SM FEW060 SCT250
     FM210200 18005KT P6SM SCT250=



000
FTUS43 KLOT 201400 AAB
TAFGYY
TAF AMD
KGYY 201400Z 2014/2112 00000KT P6SM BKN060
     FM201600 18007KT P6SM SCT050 BKN250
     FM202000 07005KT P6SM FEW060 SCT250
     FM210200 18005KT P6SM SCT250=



000
FTUS43 KLOT 201400 AAA
TAFORD
TAF AMD
KORD 201400Z 2014/2118 21004KT P6SM FEW060
     FM201600 20007KT P6SM SCT050 BKN250
     FM202300 11009KT P6SM FEW060 SCT250
     FM210200 14005KT P6SM SCT250
     FM210600 21007KT P6SM FEW250=



000
FTUS43 KLOT 201400 AAB
TAFMDW
TAF AMD
KMDW 201400Z 2014/2112 22003KT P6SM SCT060
     FM201600 20007KT P6SM SCT050 BKN250
     FM202300 11009KT P6SM FEW060 SCT250
     FM210200 14005KT P6SM SCT250=



000
FTUS43 KLOT 201300 AAA
TAFMDW
TAF AMD
KMDW 201305Z 2013/2112 00000KT P6SM BKN060
     FM201500 20007KT P6SM FEW050 SCT250
     FM202300 11009KT P6SM FEW060 SCT250
     FM210200 14005KT P6SM SCT250=



000
FTUS43 KLOT 201200 AAA
TAFGYY
TAF AMD
KGYY 201257Z 2013/2112 00000KT 6SM BR BKN060
     FM201600 19007KT P6SM FEW050 SCT250
     FM202000 07005KT P6SM FEW060 SCT250
     FM210200 18005KT P6SM SCT250=



000
FTUS43 KLOT 201200 AAA
TAFGYY
TAF AMD
KGYY 201257Z 2013/2112 00000KT 6SM BR BKN060
     FM201600 19007KT P6SM FEW050 SCT250
     FM202000 07005KT P6SM FEW060 SCT250
     FM210200 18005KT P6SM SCT250=



000
FTUS43 KLOT 201100
TAFMDW
TAF
KMDW 201120Z 2012/2112 00000KT P6SM BKN250
     FM201500 20007KT P6SM FEW050 SCT250
     FM202300 11009KT P6SM FEW060 SCT250
     FM210200 14005KT P6SM SCT250=



000
FTUS43 KLOT 201100
TAFORD
TAF
KORD 201120Z 2012/2118 00000KT P6SM BKN250
     FM201500 20007KT P6SM FEW050 SCT250
     FM202300 11009KT P6SM FEW060 SCT250
     FM210200 14005KT P6SM SCT250
     FM210600 21007KT P6SM FEW250=



000
FTUS43 KLOT 201100
TAFGYY
TAF
KGYY 201120Z 2012/2112 00000KT 3SM BR BKN250
     FM201300 19007KT P6SM FEW050 SCT250
     FM202000 07005KT P6SM FEW060 SCT250
     FM210200 18005KT P6SM SCT250=



000
FTUS43 KLOT 201100
TAFDPA
TAF
KDPA 201120Z 2012/2112 00000KT 1SM BR SCT003 BKN250
     FM201300 19007KT P6SM SCT050 SCT250=



000
FTUS43 KLOT 201100
TAFGYY
TAF
KGYY 201120Z 2012/2112 00000KT 3SM BR BKN250
     FM201300 19007KT P6SM FEW050 SCT250
     FM202000 07005KT P6SM FEW060 SCT250
     FM210200 18005KT P6SM SCT250=



000
FTUS43 KLOT 201100
TAFRFD
TAF
KRFD 201120Z 2012/2112 VRB03KT P6SM BKN250
     FM201500 20007KT P6SM SCT050 SCT250=



000
FTUS43 KLOT 200900 AAC
TAFDPA
TAF AMD
KDPA 200939Z 2010/2106 00000KT 1 1/2SM BR BKN250
     FM201300 19007KT P6SM SCT050 SCT250=



000
FTUS43 KLOT 200900 AAC
TAFGYY
TAF AMD
KGYY 200919Z 2009/2106 00000KT 4SM BR BKN250
      TEMPO 2009/2013 1SM BR
     FM201300 19007KT P6SM FEW050 SCT250
     FM202000 07005KT P6SM FEW060 SCT250
     FM210200 18005KT P6SM SCT250=



000
FTUS43 KLOT 200900 AAC
TAFGYY
TAF AMD
KGYY 200919Z 2009/2106 00000KT 4SM BR BKN250
      TEMPO 2009/2013 1SM BR
     FM201300 19007KT P6SM FEW050 SCT250
     FM202000 07005KT P6SM FEW060 SCT250
     FM210200 18005KT P6SM SCT250=



000
FTUS43 KLOT 200800 AAA
TAFRFD
TAF AMD
KRFD 200859Z 2009/2106 VRB03KT P6SM BKN250
     FM201500 20007KT P6SM SCT050 SCT250=



000
FTUS43 KLOT 200800 AAB
TAFDPA
TAF AMD
KDPA 200859Z 2009/2106 00000KT 4SM BR BKN250
     FM201300 19007KT P6SM SCT050 SCT250=



000
FTUS43 KLOT 200800 AAB
TAFGYY
TAF AMD
KGYY 200859Z 2009/2106 00000KT 4SM BR BKN250
     FM201300 19007KT P6SM FEW050 SCT250
     FM202000 07005KT P6SM FEW060 SCT250
     FM210200 18005KT P6SM SCT250=



000
FTUS43 KLOT 200800 AAB
TAFGYY
TAF AMD
KGYY 200859Z 2009/2106 00000KT 4SM BR BKN250
     FM201300 19007KT P6SM FEW050 SCT250
     FM202000 07005KT P6SM FEW060 SCT250
     FM210200 18005KT P6SM SCT250=



000
FTUS43 KLOT 200800 AAA
TAFORD
TAF AMD
KORD 200859Z 2009/2112 00000KT P6SM BKN250
     FM201500 20007KT P6SM FEW050 SCT250
     FM202200 11009KT P6SM FEW060 SCT250
     FM210200 14005KT P6SM SCT250
     FM210600 21005KT P6SM FEW250=



000
FTUS43 KLOT 200800 AAA
TAFMDW
TAF AMD
KMDW 200859Z 2009/2106 00000KT P6SM BKN250
     FM201500 20007KT P6SM FEW050 SCT250
     FM202300 11009KT P6SM FEW060 SCT250
     FM210200 14005KT P6SM SCT250=



000
FTUS43 KLOT 200700 AAA
TAFDPA
TAF AMD
KDPA 200701Z 2007/2106 00000KT 5SM BR BKN250
     FM201300 19007KT P6SM SCT050 SCT250=



000
FTUS43 KLOT 200600 AAA
TAFGYY
TAF AMD
KGYY 200630Z 2007/2106 00000KT 5SM BR BKN250
     FM201300 19007KT P6SM FEW050 SCT250
     FM202000 07005KT P6SM FEW060 SCT250
     FM210200 18005KT P6SM SCT250=



000
FTUS43 KLOT 200600 AAA
TAFGYY
TAF AMD
KGYY 200630Z 2007/2106 00000KT 5SM BR BKN250
     FM201300 19007KT P6SM FEW050 SCT250
     FM202000 07005KT P6SM FEW060 SCT250
     FM210200 18005KT P6SM SCT250=



    US Dept of Commerce
    National Oceanic and Atmospheric Administration
    National Weather Service
    1325 East West Highway
    Silver Spring, MD 20910
    Page Author: NWS Internet Services Team
Disclaimer
Information Quality
Credits
Glossary
Privacy Policy
Freedom of Information Act (FOIA)
About Us
Career Opportunities